EGMC/SEN METAR and TAF weather

Enter ICAO airport designator
Station Type Date Time Source
EGMC METAR 2019/04/24 22:50 UTC NOAA

EGMC 242250Z 15006KT 9999 FEW030 09/06 Q0998


Station Type Date Time Source
EGMC Decoded METAR 2019/04/24 22:50 UTC NOAA

Southend-On-Sea , United Kingdom (EGMC) 51-34N 000-42E
Apr 24, 2019 - 06:50 PM EDT / 2019.04.24 2250 UTC
Wind: from the SSE (150 degrees) at 7 MPH (6 KT):0
Visibility: greater than 7 mile(s):0
Sky conditions: mostly clear
Temperature: 48 F (9 C)
Dew Point: 42 F (6 C)
Relative Humidity: 81%
Pressure (altimeter): 29.47 in. Hg (0998 hPa)
ob: EGMC 242250Z 15006KT 9999 FEW030 09/06 Q0998
cycle: 23

Station Type Date Time Source
EGMC TAF 2016/04/18 18:00 UTC NOAA

TAF EGMC 181658Z 1818/1903 28008KT 9999 BKN045

Example: see airport list